Time;durP1;ratioP1;P1;durP2;ratioP2;P2;SDS_P1;SDS_P2;PMS_P1;PMS_P2;Temp;Humidity;BMP_temperature;BMP_pressure;BME280_temperature;BME280_humidity;BME280_pressure;Samples;Min_cycle;Max_cycle;Signal;HPM_P1;HPM_P2
2023/02/14 00:02:17;;;;;;;8.30;4.97;;;4.40;99.90;;;;;;5060596;28;20451;-86
2023/02/14 00:04:45;;;;;;;7.40;4.10;;;4.40;99.90;;;;;;5065002;28;20477;-84
2023/02/14 00:07:12;;;;;;;8.60;4.80;;;4.40;99.90;;;;;;5113761;28;20541;-85
2023/02/14 00:09:39;;;;;;;8.47;4.40;;;4.30;99.90;;;;;;5063193;28;20515;-87
2023/02/14 00:12:06;;;;;;;7.97;4.47;;;4.30;99.90;;;;;;5031325;28;20486;-87
2023/02/14 00:17:19;;;;;;;6.13;4.60;;;4.30;99.90;;;;;;5095164;28;20476;-82
2023/02/14 00:19:46;;;;;;;7.30;4.73;;;4.20;99.90;;;;;;5063142;28;20518;-85
2023/02/14 00:22:13;;;;;;;7.67;5.37;;;4.20;99.90;;;;;;5090047;28;20466;-85
2023/02/14 00:24:39;;;;;;;6.43;4.10;;;4.20;99.90;;;;;;5077584;28;20755;-85
2023/02/14 00:27:06;;;;;;;8.03;4.90;;;4.10;99.90;;;;;;5067604;28;20448;-83
2023/02/14 00:29:35;;;;;;;7.33;5.27;;;4.10;99.90;;;;;;5069054;28;20481;-85
2023/02/14 00:32:02;;;;;;;6.60;3.83;;;4.10;99.90;;;;;;5048835;28;20523;-86
2023/02/14 00:34:29;;;;;;;5.90;4.47;;;4.10;99.90;;;;;;5065252;28;20428;-85
2023/02/14 00:39:36;;;;;;;7.40;3.77;;;4.00;99.90;;;;;;5112395;28;20483;-86
2023/02/14 00:42:03;;;;;;;5.97;4.30;;;4.00;99.90;;;;;;5087564;28;20500;-85
2023/02/14 00:44:30;;;;;;;4.73;3.47;;;4.00;99.90;;;;;;5118174;28;20472;-85
2023/02/14 00:46:58;;;;;;;5.10;3.67;;;4.00;99.90;;;;;;5087234;28;20425;-85
2023/02/14 00:49:25;;;;;;;7.87;4.47;;;3.90;99.90;;;;;;5067288;28;20488;-85
2023/02/14 00:51:53;;;;;;;6.07;4.67;;;3.90;99.90;;;;;;5088866;28;20497;-86
2023/02/14 00:54:20;;;;;;;6.87;3.77;;;3.90;99.90;;;;;;5117860;28;20468;-84
2023/02/14 00:56:47;;;;;;;5.97;3.57;;;3.90;99.90;;;;;;5078525;28;20485;-84
2023/02/14 00:59:14;;;;;;;6.43;4.60;;;3.90;99.90;;;;;;5109292;28;20550;-84
2023/02/14 01:01:40;;;;;;;5.33;3.73;;;3.90;99.90;;;;;;5077518;28;20481;-85
2023/02/14 01:04:09;;;;;;;6.50;4.30;;;3.90;99.90;;;;;;5099567;28;20510;-84
2023/02/14 01:06:36;;;;;;;8.80;6.00;;;3.80;99.90;;;;;;5076080;28;20448;-84
2023/02/14 01:09:03;;;;;;;6.43;4.30;;;3.80;99.90;;;;;;5071431;28;21021;-82
2023/02/14 01:11:30;;;;;;;5.57;4.00;;;3.80;99.90;;;;;;5058007;28;20538;-84
2023/02/14 01:13:59;;;;;;;8.33;5.43;;;3.80;99.90;;;;;;5076165;28;20492;-84
2023/02/14 01:16:27;;;;;;;8.63;4.70;;;3.80;99.90;;;;;;5043327;28;20490;-83
2023/02/14 01:18:54;;;;;;;7.33;4.40;;;3.90;99.90;;;;;;5030456;28;20505;-84
2023/02/14 01:21:24;;;;;;;6.63;4.63;;;3.80;99.90;;;;;;5047759;28;20552;-85
2023/02/14 01:23:53;;;;;;;9.00;5.13;;;3.90;99.90;;;;;;5058285;28;20468;-84
2023/02/14 01:26:21;;;;;;;8.17;4.90;;;3.80;99.90;;;;;;5095922;28;20525;-84
2023/02/14 01:28:49;;;;;;;6.43;4.40;;;3.80;99.90;;;;;;5099786;28;20503;-84
2023/02/14 01:31:18;;;;;;;7.77;4.90;;;3.80;99.90;;;;;;5077523;28;20468;-84
2023/02/14 01:33:46;;;;;;;5.53;4.07;;;3.80;99.90;;;;;;5078914;28;20445;-84
2023/02/14 01:36:21;;;;;;;6.67;4.70;;;3.80;99.90;;;;;;5081063;28;20516;-86
2023/02/14 01:38:52;;;;;;;6.10;4.20;;;3.70;99.90;;;;;;5076699;28;20474;-86
2023/02/14 01:41:19;;;;;;;6.60;4.37;;;3.80;99.90;;;;;;5090276;28;20525;-85
2023/02/14 01:43:55;;;;;;;7.47;4.43;;;3.80;99.90;;;;;;5024881;28;20444;-87
2023/02/14 01:46:22;;;;;;;7.63;5.13;;;3.70;99.90;;;;;;5077566;28;20437;-82
2023/02/14 01:48:50;;;;;;;6.53;4.27;;;3.80;99.90;;;;;;5085334;28;20474;-82
2023/02/14 01:51:19;;;;;;;6.80;4.70;;;3.80;99.90;;;;;;5090204;28;20488;-83
2023/02/14 01:53:47;;;;;;;6.40;4.37;;;3.80;99.90;;;;;;5050676;28;20534;-83
2023/02/14 01:56:25;;;;;;;8.63;4.83;;;3.80;99.90;;;;;;5077071;28;20500;-83
2023/02/14 01:58:55;;;;;;;5.30;3.97;;;3.80;99.90;;;;;;5099289;28;20464;-84
2023/02/14 02:04:46;;;;;;;6.40;4.80;;;3.90;99.90;;;;;;4931657;29;20442;-82
2023/02/14 02:07:25;;;;;;;6.10;4.87;;;3.90;99.90;;;;;;5029265;28;20482;-84
2023/02/14 02:09:56;;;;;;;5.90;4.40;;;3.90;99.90;;;;;;5059046;28;20482;-83
2023/02/14 02:12:24;;;;;;;7.20;4.23;;;3.90;99.90;;;;;;5054637;28;20851;-84
2023/02/14 02:14:54;;;;;;;5.53;3.77;;;3.90;99.90;;;;;;5059632;28;20477;-84
2023/02/14 02:17:28;;;;;;;7.43;4.93;;;4.00;99.90;;;;;;5055520;28;20495;-83
2023/02/14 02:20:25;;;;;;;7.97;4.47;;;3.90;99.90;;;;;;5053481;28;20453;-84
2023/02/14 02:23:46;;;;;;;8.53;4.20;;;3.90;99.90;;;;;;5043871;28;20457;-83
2023/02/14 02:26:38;;;;;;;6.73;4.47;;;3.90;99.90;;;;;;4993865;28;20493;-83
2023/02/14 02:29:44;;;;;;;10.30;4.40;;;3.90;99.90;;;;;;5025052;28;20523;-83
2023/02/14 02:32:41;;;;;;;6.47;4.73;;;3.90;99.90;;;;;;5028097;28;20528;-84
2023/02/14 02:35:48;;;;;;;10.87;5.20;;;3.90;99.90;;;;;;5049858;28;20470;-84
2023/02/14 02:38:29;;;;;;;8.43;5.17;;;3.90;99.90;;;;;;4994089;28;20531;-83
2023/02/14 02:41:08;;;;;;;6.43;4.73;;;3.80;99.90;;;;;;5045234;28;20545;-84
2023/02/14 02:43:43;;;;;;;7.57;4.93;;;3.80;99.90;;;;;;5057267;28;20446;-85
2023/02/14 02:49:13;;;;;;;8.03;4.50;;;3.80;99.90;;;;;;5037716;28;20465;-82
2023/02/14 02:55:28;;;;;;;9.20;4.90;;;3.70;99.90;;;;;;5022931;28;20871;-83
2023/02/14 02:57:55;;;;;;;10.47;3.70;;;3.70;99.90;;;;;;5047767;28;20517;-84
2023/02/14 03:00:24;;;;;;;7.67;4.40;;;3.70;99.90;;;;;;4999225;28;20471;-84
2023/02/14 03:05:41;;;;;;;8.73;5.87;;;3.60;99.90;;;;;;5085103;28;20523;-84
2023/02/14 03:08:07;;;;;;;7.43;5.20;;;3.60;99.90;;;;;;5040545;28;20468;-83
2023/02/14 03:10:39;;;;;;;6.77;4.77;;;3.60;99.90;;;;;;5081645;28;20838;-85
2023/02/14 03:13:44;;;;;;;6.10;3.97;;;3.60;99.90;;;;;;5063550;28;20886;-84
2023/02/14 03:16:27;;;;;;;7.00;4.37;;;3.60;99.90;;;;;;5001949;28;20444;-82
2023/02/14 03:22:40;;;;;;;7.23;4.53;;;3.50;99.90;;;;;;5062708;28;20454;-83
2023/02/14 03:25:18;;;;;;;6.90;5.40;;;3.50;99.90;;;;;;5059582;28;20453;-82
2023/02/14 03:27:52;;;;;;;9.00;5.47;;;3.40;99.90;;;;;;5059404;28;20439;-83
2023/02/14 03:30:30;;;;;;;7.90;5.00;;;3.40;99.90;;;;;;5073642;28;20449;-82
2023/02/14 03:33:01;;;;;;;7.27;5.20;;;3.30;99.90;;;;;;5066739;28;20444;-84
2023/02/14 03:35:36;;;;;;;7.47;4.40;;;3.30;99.90;;;;;;5023839;28;20521;-85
2023/02/14 03:38:10;;;;;;;7.90;4.97;;;3.30;99.90;;;;;;5044333;28;20560;-84
2023/02/14 03:40:42;;;;;;;9.53;4.80;;;3.30;99.90;;;;;;5020344;28;20444;-83
2023/02/14 03:43:13;;;;;;;6.40;4.57;;;3.30;99.90;;;;;;5045049;28;20477;-83
2023/02/14 03:45:44;;;;;;;6.27;3.77;;;3.30;99.90;;;;;;5091657;28;20480;-85
2023/02/14 03:48:13;;;;;;;7.40;5.07;;;3.20;99.90;;;;;;5046730;28;20715;-84
2023/02/14 03:50:44;;;;;;;6.37;4.73;;;3.20;99.90;;;;;;5091097;28;20531;-85
2023/02/14 03:53:12;;;;;;;7.73;5.07;;;3.10;99.90;;;;;;5049410;28;20730;-84
2023/02/14 03:55:46;;;;;;;7.77;4.83;;;3.10;99.90;;;;;;5081421;28;20462;-84
2023/02/14 03:58:20;;;;;;;7.37;4.93;;;3.10;99.90;;;;;;5047678;28;20517;-84
2023/02/14 04:00:50;;;;;;;7.17;4.40;;;3.10;99.90;;;;;;5098751;28;20540;-84
2023/02/14 04:03:20;;;;;;;6.53;4.90;;;3.10;99.90;;;;;;5048949;28;20462;-84
2023/02/14 04:05:51;;;;;;;7.00;4.87;;;3.10;99.90;;;;;;5094237;28;20453;-84
2023/02/14 04:08:22;;;;;;;6.90;4.67;;;3.00;99.90;;;;;;5045563;28;20433;-83
2023/02/14 04:10:49;;;;;;;7.10;4.77;;;3.00;99.90;;;;;;5106370;28;20425;-83
2023/02/14 04:13:17;;;;;;;7.17;4.73;;;3.00;99.90;;;;;;5060189;28;20479;-84
2023/02/14 04:15:44;;;;;;;8.90;6.80;;;3.00;99.90;;;;;;5106612;28;20480;-84
2023/02/14 04:20:56;;;;;;;8.17;5.73;;;3.00;99.90;;;;;;5107492;28;20976;-84
2023/02/14 04:23:23;;;;;;;6.40;4.30;;;2.90;99.90;;;;;;5050465;28;20534;-84
2023/02/14 04:25:49;;;;;;;8.47;5.37;;;2.90;99.90;;;;;;5102777;28;20468;-85
2023/02/14 04:28:18;;;;;;;7.40;4.40;;;2.90;99.90;;;;;;5054689;28;20483;-85
2023/02/14 04:30:44;;;;;;;8.63;5.10;;;2.90;99.90;;;;;;5016290;28;20476;-84
2023/02/14 04:33:11;;;;;;;7.67;5.00;;;2.90;99.90;;;;;;5069248;28;20486;-83
2023/02/14 04:35:38;;;;;;;8.80;5.10;;;2.90;99.90;;;;;;5051657;28;20466;-83
2023/02/14 04:38:05;;;;;;;6.23;4.90;;;2.80;99.90;;;;;;5068857;28;20486;-83
2023/02/14 04:40:48;;;;;;;6.80;4.80;;;2.80;99.90;;;;;;5054646;28;20458;-82
2023/02/14 04:43:16;;;;;;;6.37;5.00;;;2.80;99.90;;;;;;5036913;28;20483;-83
2023/02/14 04:45:57;;;;;;;6.27;4.70;;;2.80;99.90;;;;;;5023060;28;20464;-82
2023/02/14 04:48:24;;;;;;;7.90;4.80;;;2.80;99.90;;;;;;5043862;28;20440;-84
2023/02/14 04:50:52;;;;;;;9.13;5.50;;;2.70;99.90;;;;;;5033633;28;20496;-82
2023/02/14 04:53:38;;;;;;;6.47;4.47;;;2.70;99.90;;;;;;5070504;28;20465;-82
2023/02/14 04:56:06;;;;;;;7.30;5.67;;;2.70;99.90;;;;;;5031434;28;20484;-82
2023/02/14 04:58:34;;;;;;;7.30;4.37;;;2.60;99.90;;;;;;5069780;28;20517;-83
2023/02/14 05:01:01;;;;;;;8.13;6.03;;;2.60;99.90;;;;;;5076030;28;20504;-83
2023/02/14 05:03:27;;;;;;;8.27;4.70;;;2.60;99.90;;;;;;5062453;28;20464;-83
2023/02/14 05:05:54;;;;;;;7.23;4.90;;;2.60;99.90;;;;;;5070975;28;20430;-84
2023/02/14 05:08:21;;;;;;;8.03;4.63;;;2.50;99.90;;;;;;5089542;28;20455;-84
2023/02/14 05:10:48;;;;;;;6.23;4.90;;;2.50;99.90;;;;;;5051117;28;20482;-84
2023/02/14 05:13:16;;;;;;;6.90;4.83;;;2.50;99.90;;;;;;5071694;28;20443;-84
2023/02/14 05:15:45;;;;;;;8.20;4.93;;;2.50;99.90;;;;;;5060657;28;20470;-83
2023/02/14 05:18:12;;;;;;;8.53;4.90;;;2.50;99.90;;;;;;5070989;28;20449;-83
2023/02/14 05:20:49;;;;;;;6.00;4.37;;;2.50;99.90;;;;;;5103773;28;20480;-81
2023/02/14 05:26:28;;;;;;;9.43;5.10;;;2.50;99.90;;;;;;5073270;28;20462;-84
2023/02/14 05:28:55;;;;;;;9.37;5.80;;;2.50;99.90;;;;;;5067770;28;20416;-83
2023/02/14 05:31:24;;;;;;;7.50;5.87;;;2.40;99.90;;;;;;5076260;28;20520;-83
2023/02/14 05:33:50;;;;;;;11.90;5.73;;;2.40;99.90;;;;;;5074848;28;20471;-83
2023/02/14 05:36:17;;;;;;;8.33;5.27;;;2.40;99.90;;;;;;5054751;28;20486;-84
2023/02/14 05:38:44;;;;;;;7.80;4.90;;;2.40;99.90;;;;;;5045822;28;20492;-84
2023/02/14 05:41:11;;;;;;;7.10;5.17;;;2.40;99.90;;;;;;5077571;28;20566;-84
2023/02/14 05:43:38;;;;;;;10.63;5.07;;;2.40;99.90;;;;;;5023882;28;20524;-84
2023/02/14 05:46:05;;;;;;;7.13;4.30;;;2.30;99.90;;;;;;5042252;28;20416;-83
2023/02/14 05:48:33;;;;;;;8.37;5.67;;;2.40;99.90;;;;;;5037328;28;20421;-84
2023/02/14 05:51:04;;;;;;;7.97;5.17;;;2.40;99.90;;;;;;5064342;22;21048;-83
2023/02/14 05:53:31;;;;;;;10.97;5.90;;;2.30;99.90;;;;;;5003173;28;20443;-85
2023/02/14 05:55:57;;;;;;;6.87;5.00;;;2.40;99.90;;;;;;5066221;28;20420;-89
2023/02/14 05:58:24;;;;;;;10.33;6.17;;;2.30;99.90;;;;;;5031514;28;20467;-83
2023/02/14 06:00:51;;;;;;;10.73;6.53;;;2.40;99.90;;;;;;4998528;28;20470;-84
2023/02/14 06:03:18;;;;;;;11.97;7.10;;;2.30;99.90;;;;;;4980176;28;20450;-90
2023/02/14 06:05:46;;;;;;;7.10;5.17;;;2.30;99.90;;;;;;4997883;28;20459;-84
2023/02/14 06:08:13;;;;;;;8.80;5.80;;;2.30;99.90;;;;;;4995188;28;20429;-85
2023/02/14 06:10:40;;;;;;;9.97;6.43;;;2.30;99.90;;;;;;4960489;28;20458;-86
2023/02/14 06:13:07;;;;;;;9.73;6.67;;;2.30;99.90;;;;;;4964230;28;20456;-84
2023/02/14 06:15:34;;;;;;;10.27;7.40;;;2.20;99.90;;;;;;4968153;28;20459;-82
2023/02/14 06:18:01;;;;;;;9.97;6.30;;;2.20;99.90;;;;;;5001985;28;20507;-85
2023/02/14 06:20:28;;;;;;;10.37;5.40;;;2.20;99.90;;;;;;5008896;28;20472;-86
2023/02/14 06:22:57;;;;;;;10.50;6.30;;;2.20;99.90;;;;;;4978047;28;20500;-84
2023/02/14 06:25:25;;;;;;;9.33;6.00;;;2.20;99.90;;;;;;4966807;28;20436;-85
2023/02/14 06:27:55;;;;;;;11.93;7.50;;;2.20;99.90;;;;;;4976427;28;20905;-85
2023/02/14 06:30:22;;;;;;;12.30;7.10;;;2.20;99.90;;;;;;4975937;28;20515;-85
2023/02/14 06:32:49;;;;;;;9.17;6.60;;;2.10;99.90;;;;;;4975041;28;20458;-85
2023/02/14 06:35:16;;;;;;;9.27;6.17;;;2.10;99.90;;;;;;4976201;28;20464;-85
2023/02/14 06:37:44;;;;;;;10.10;7.10;;;2.10;99.90;;;;;;4975424;28;20484;-84
2023/02/14 06:40:14;;;;;;;11.97;7.17;;;2.10;99.90;;;;;;4976558;28;20483;-85
2023/02/14 06:42:40;;;;;;;11.63;7.30;;;2.10;99.90;;;;;;4975743;28;21025;-84
2023/02/14 06:45:08;;;;;;;16.27;6.70;;;2.10;99.90;;;;;;4975962;28;20595;-84
2023/02/14 06:47:35;;;;;;;15.10;7.67;;;2.10;99.90;;;;;;5032666;28;20461;-85
2023/02/14 06:50:03;;;;;;;13.67;6.57;;;2.10;99.90;;;;;;5075838;28;20457;-87
2023/02/14 06:52:30;;;;;;;15.07;7.30;;;2.10;99.90;;;;;;5026709;28;20513;-87
2023/02/14 06:54:57;;;;;;;13.20;8.00;;;2.10;99.90;;;;;;5034892;28;20428;-88
2023/02/14 06:57:25;;;;;;;13.70;8.90;;;2.10;99.90;;;;;;4998945;28;20439;-86
2023/02/14 06:59:52;;;;;;;13.13;7.73;;;2.10;99.90;;;;;;4974141;28;20480;-86
2023/02/14 07:02:20;;;;;;;16.00;9.40;;;2.10;99.90;;;;;;4968236;28;20509;-85
2023/02/14 07:04:46;;;;;;;11.37;7.80;;;2.20;99.90;;;;;;4967230;28;20521;-85
2023/02/14 07:07:13;;;;;;;13.50;9.07;;;2.20;99.90;;;;;;4991998;28;20511;-85
2023/02/14 07:09:40;;;;;;;12.27;7.23;;;2.20;99.90;;;;;;4968511;28;20501;-85
2023/02/14 07:12:07;;;;;;;17.23;9.33;;;2.30;99.90;;;;;;4978189;28;20454;-86
2023/02/14 07:14:35;;;;;;;14.47;7.17;;;2.30;99.90;;;;;;4982910;28;20506;-86
2023/02/14 07:17:05;;;;;;;12.47;8.27;;;2.30;99.90;;;;;;4980363;28;20556;-86
2023/02/14 07:19:32;;;;;;;17.40;10.23;;;2.30;99.90;;;;;;4982778;28;20487;-86
2023/02/14 07:22:00;;;;;;;14.73;9.67;;;2.30;99.90;;;;;;4986332;28;20541;-86
2023/02/14 07:24:27;;;;;;;14.83;8.00;;;2.40;99.90;;;;;;4988157;28;20467;-86
2023/02/14 07:26:54;;;;;;;13.47;9.07;;;2.40;99.90;;;;;;4981056;28;20503;-88
2023/02/14 07:29:21;;;;;;;16.33;8.30;;;2.40;99.90;;;;;;4998499;28;20470;-84
2023/02/14 07:31:49;;;;;;;20.90;11.20;;;2.40;99.90;;;;;;4971379;28;20557;-83
2023/02/14 07:34:16;;;;;;;14.67;9.73;;;2.50;99.90;;;;;;4989312;28;20453;-82
2023/02/14 07:36:43;;;;;;;17.27;9.60;;;2.50;99.90;;;;;;4988002;28;20447;-84
2023/02/14 07:39:10;;;;;;;17.00;10.50;;;2.60;99.90;;;;;;4976582;28;20488;-85
2023/02/14 07:41:37;;;;;;;14.47;9.60;;;2.70;99.90;;;;;;4974252;28;20570;-84
2023/02/14 07:44:04;;;;;;;18.17;10.00;;;2.70;99.90;;;;;;4975319;28;20500;-85
2023/02/14 07:46:31;;;;;;;17.60;11.27;;;2.80;99.90;;;;;;4977876;28;20478;-84
2023/02/14 07:48:59;;;;;;;20.07;11.33;;;2.80;99.90;;;;;;4973224;28;20487;-85
2023/02/14 07:51:26;;;;;;;19.87;10.27;;;2.90;99.90;;;;;;4973076;28;20529;-86
2023/02/14 07:53:52;;;;;;;22.33;11.67;;;2.90;99.90;;;;;;4975739;28;20518;-85
2023/02/14 07:56:19;;;;;;;12.97;9.43;;;3.00;99.90;;;;;;4974825;28;20559;-83
2023/02/14 07:58:48;;;;;;;17.53;10.23;;;3.00;99.90;;;;;;4977817;28;20484;-85
2023/02/14 08:01:16;;;;;;;20.60;12.30;;;3.10;99.90;;;;;;4975064;28;20516;-86
2023/02/14 08:03:45;;;;;;;20.83;11.97;;;3.10;99.90;;;;;;4970923;28;20451;-84
2023/02/14 08:06:13;;;;;;;25.83;12.50;;;3.20;99.90;;;;;;4983781;28;20475;-86
2023/02/14 08:08:40;;;;;;;20.90;11.10;;;3.30;99.90;;;;;;4976801;28;20529;-86
2023/02/14 08:11:07;;;;;;;17.73;10.83;;;3.30;99.90;;;;;;4971515;28;20558;-85
2023/02/14 08:13:34;;;;;;;24.40;13.50;;;3.40;99.90;;;;;;4968813;28;20439;-86
2023/02/14 08:16:08;;;;;;;17.00;10.00;;;3.40;99.90;;;;;;4970299;28;20467;-87
2023/02/14 08:18:37;;;;;;;19.60;11.87;;;3.50;99.90;;;;;;4976238;28;20483;-87
2023/02/14 08:21:05;;;;;;;20.80;11.93;;;3.60;99.90;;;;;;4982941;28;20519;-87
2023/02/14 08:23:33;;;;;;;22.77;13.87;;;3.70;99.90;;;;;;4975539;28;20466;-86
2023/02/14 08:26:00;;;;;;;29.30;14.23;;;3.80;99.90;;;;;;4989221;28;20470;-86
2023/02/14 08:28:27;;;;;;;23.90;12.93;;;3.80;99.90;;;;;;4969289;28;20473;-87
2023/02/14 08:30:55;;;;;;;20.80;12.67;;;3.90;99.90;;;;;;4975967;28;20539;-87
2023/02/14 08:33:22;;;;;;;23.57;13.53;;;4.00;99.90;;;;;;4964990;28;20473;-85
2023/02/14 08:35:50;;;;;;;21.10;13.20;;;4.10;99.90;;;;;;4973898;28;20509;-84
2023/02/14 08:38:17;;;;;;;21.47;13.60;;;4.20;99.90;;;;;;4974368;28;20466;-85
2023/02/14 08:40:46;;;;;;;24.03;14.93;;;4.20;99.90;;;;;;4965478;28;20466;-85
2023/02/14 08:43:13;;;;;;;22.97;13.87;;;4.30;99.90;;;;;;4972513;28;20468;-85
2023/02/14 08:45:40;;;;;;;22.00;13.93;;;4.40;99.90;;;;;;5028271;28;20483;-85
2023/02/14 08:48:09;;;;;;;24.73;14.30;;;4.50;99.90;;;;;;4997690;28;20462;-84
2023/02/14 08:50:37;;;;;;;26.50;12.97;;;4.60;99.90;;;;;;4976517;28;20490;-86
2023/02/14 08:53:07;;;;;;;25.73;14.40;;;4.70;99.90;;;;;;4991594;28;20559;-85
2023/02/14 08:55:34;;;;;;;22.60;13.60;;;4.80;99.90;;;;;;4979322;28;20456;-84
2023/02/14 08:58:02;;;;;;;19.03;13.87;;;4.90;99.90;;;;;;4974999;28;20510;-86
2023/02/14 09:00:29;;;;;;;23.33;13.10;;;5.00;99.90;;;;;;5006474;28;20550;-86
2023/02/14 09:02:59;;;;;;;22.03;12.20;;;5.20;99.90;;;;;;4981172;28;20478;-83
2023/02/14 09:05:28;;;;;;;20.03;11.27;;;5.60;99.90;;;;;;4972852;28;20489;-84
2023/02/14 09:07:58;;;;;;;23.00;13.13;;;5.90;99.90;;;;;;4968664;28;20459;-82
2023/02/14 09:10:27;;;;;;;18.93;10.37;;;6.10;99.90;;;;;;4972357;28;20478;-86
2023/02/14 09:12:54;;;;;;;19.17;11.00;;;6.30;99.90;;;;;;4977701;28;20646;-85
2023/02/14 09:15:22;;;;;;;12.70;9.00;;;6.60;99.90;;;;;;4992619;28;20465;-84
2023/02/14 09:17:49;;;;;;;16.70;10.53;;;6.80;99.90;;;;;;4981694;28;20620;-86
2023/02/14 09:20:16;;;;;;;13.13;8.40;;;7.20;99.90;;;;;;4973430;28;20494;-85
2023/02/14 09:22:43;;;;;;;13.63;8.40;;;8.00;99.90;;;;;;4985166;28;20571;-85
2023/02/14 09:25:10;;;;;;;14.07;8.30;;;8.80;99.90;;;;;;4969580;28;20534;-84
2023/02/14 09:27:37;;;;;;;14.27;8.27;;;9.30;13.50;;;;;;4965825;28;20957;-84
2023/02/14 09:30:05;;;;;;;10.70;8.13;;;9.60;1.00;;;;;;4967048;28;20469;-84
2023/02/14 09:32:34;;;;;;;13.80;7.57;;;10.20;99.90;;;;;;4974450;28;20881;-83
2023/02/14 09:35:00;;;;;;;11.03;7.47;;;10.50;1.00;;;;;;4992254;28;20493;-83
2023/02/14 09:37:27;;;;;;;12.33;7.20;;;11.00;1.00;;;;;;4971440;28;20484;-84
2023/02/14 09:39:54;;;;;;;8.87;6.83;;;11.80;99.90;;;;;;5034035;28;20486;-83
2023/02/14 09:42:53;;;;;;;10.60;7.23;;;12.50;99.90;;;;;;5026682;28;20550;-86
2023/02/14 09:45:24;;;;;;;9.00;7.20;;;12.60;49.70;;;;;;4993039;28;20490;-85
2023/02/14 09:47:58;;;;;;;9.07;7.00;;;13.00;1.00;;;;;;5029438;28;20452;-86
2023/02/14 09:50:33;;;;;;;12.40;8.20;;;13.60;1.00;;;;;;5020528;28;20476;-86
2023/02/14 09:53:04;;;;;;;11.80;6.97;;;13.60;1.00;;;;;;5079150;28;20472;-85
2023/02/14 09:55:39;;;;;;;13.13;8.93;;;13.30;1.00;;;;;;5079220;28;20541;-86
2023/02/14 09:58:13;;;;;;;13.73;7.97;;;13.00;1.00;;;;;;4965778;28;20492;-86
2023/02/14 10:00:45;;;;;;;11.20;7.67;;;13.30;1.00;;;;;;4962668;28;20968;-86
2023/02/14 10:03:40;;;;;;;12.50;8.00;;;13.60;1.00;;;;;;4962746;28;20920;-82
2023/02/14 10:06:18;;;;;;;11.33;7.53;;;13.10;1.00;;;;;;4989567;28;20496;-85
2023/02/14 10:08:56;;;;;;;15.47;9.00;;;13.60;1.00;;;;;;5007502;28;20538;-83
2023/02/14 10:13:12;;;;;;;12.60;7.10;;;14.50;1.00;;;;;;5082483;28;20576;-84
2023/02/14 10:15:42;;;;;;;11.10;6.90;;;16.10;1.00;;;;;;5086372;28;20462;-85
2023/02/14 10:18:14;;;;;;;11.20;8.70;;;17.10;1.00;;;;;;5075805;28;20554;-85
2023/02/14 10:20:44;;;;;;;11.80;7.83;;;16.90;1.00;;;;;;5087313;28;20478;-86
2023/02/14 10:23:25;;;;;;;9.13;7.90;;;16.00;1.00;;;;;;5082666;28;20625;-85
2023/02/14 10:25:57;;;;;;;10.40;7.50;;;16.00;1.00;;;;;;5088380;28;20460;-85
2023/02/14 10:28:31;;;;;;;11.30;8.33;;;16.60;1.00;;;;;;5082664;28;20551;-84
2023/02/14 10:31:15;;;;;;;13.40;7.90;;;17.50;1.00;;;;;;5092541;28;20993;-85
2023/02/14 10:33:46;;;;;;;12.00;7.37;;;18.20;1.00;;;;;;5093095;28;20881;-86
2023/02/14 10:36:25;;;;;;;12.80;8.10;;;18.00;1.00;;;;;;5092876;28;20907;-85
2023/02/14 10:39:01;;;;;;;12.90;8.93;;;18.40;1.00;;;;;;5087175;28;20494;-85
2023/02/14 10:41:33;;;;;;;10.30;7.63;;;18.70;1.00;;;;;;5085459;28;20436;-85
2023/02/14 10:44:16;;;;;;;10.47;8.97;;;20.30;1.00;;;;;;5087606;28;20202;-84
2023/02/14 10:46:49;;;;;;;9.33;6.93;;;21.00;1.00;;;;;;5093293;28;20481;-86
2023/02/14 10:49:31;;;;;;;8.70;7.17;;;21.20;1.00;;;;;;5096611;28;20579;-86
2023/02/14 10:52:03;;;;;;;8.20;6.30;;;22.50;1.00;;;;;;5095018;28;20573;-85
2023/02/14 10:54:37;;;;;;;9.37;7.80;;;23.50;1.00;;;;;;5077121;28;20455;-86
2023/02/14 10:57:40;;;;;;;8.27;7.27;;;24.40;1.00;;;;;;5089535;28;20459;-87
2023/02/14 11:00:20;;;;;;;9.03;7.30;;;25.80;1.00;;;;;;5085069;28;20494;-86
2023/02/14 11:02:51;;;;;;;9.27;7.50;;;25.40;1.00;;;;;;5089717;28;20445;-85
2023/02/14 11:05:34;;;;;;;9.93;8.33;;;26.90;1.00;;;;;;5086559;28;20457;-85
2023/02/14 11:08:02;;;;;;;8.90;6.63;;;28.80;1.00;;;;;;5075944;28;20486;-86
2023/02/14 11:10:31;;;;;;;7.20;6.20;;;29.70;1.00;;;;;;5077324;28;20483;-87
2023/02/14 11:12:58;;;;;;;7.43;6.73;;;31.40;1.00;;;;;;5077055;28;20478;-85
2023/02/14 11:15:31;;;;;;;8.63;7.70;;;31.90;1.00;;;;;;5087074;28;20470;-86
2023/02/14 11:18:21;;;;;;;8.87;7.97;;;32.00;1.00;;;;;;5078221;28;20977;-87
2023/02/14 11:21:03;;;;;;;9.53;7.10;;;33.30;1.00;;;;;;5076770;28;20816;-80
2023/02/14 11:23:34;;;;;;;7.83;7.10;;;34.10;1.00;;;;;;5075218;28;20451;-83
2023/02/14 11:26:06;;;;;;;8.33;7.53;;;34.50;1.00;;;;;;5063936;28;20520;-84
2023/02/14 11:28:35;;;;;;;7.50;6.80;;;34.80;1.00;;;;;;5072466;28;20451;-83
2023/02/14 11:31:04;;;;;;;8.37;7.10;;;34.90;1.00;;;;;;5083456;28;20557;-84
2023/02/14 11:33:38;;;;;;;20.97;17.40;;;34.80;1.00;;;;;;5069163;28;20545;-84
2023/02/14 11:36:11;;;;;;;10.13;9.13;;;32.20;1.00;;;;;;5069583;28;20463;-85
2023/02/14 11:38:39;;;;;;;8.80;6.87;;;33.20;1.00;;;;;;5075197;28;20460;-83
2023/02/14 11:41:09;;;;;;;12.32;7.13;;;34.10;1.00;;;;;;5074155;28;20513;-87
2023/02/14 11:43:41;;;;;;;9.05;8.15;;;35.10;1.00;;;;;;5082258;28;20505;-84
2023/02/14 11:46:14;;;;;;;9.10;6.50;;;35.00;1.00;;;;;;5070376;28;20201;-86
2023/02/14 11:48:56;;;;;;;7.33;6.63;;;34.90;1.00;;;;;;5068728;28;20451;-85
2023/02/14 11:51:31;;;;;;;7.50;6.80;;;34.90;1.00;;;;;;5068212;28;20558;-85
2023/02/14 11:54:04;;;;;;;9.77;7.57;;;33.00;1.00;;;;;;5079181;28;20453;-85
2023/02/14 11:57:31;;;;;;;8.10;7.30;;;34.10;1.00;;;;;;5083417;28;20454;-85
2023/02/14 12:00:00;;;;;;;8.67;6.53;;;35.00;1.00;;;;;;4871051;29;20468;-86
2023/02/14 12:02:43;;;;;;;8.27;7.00;;;35.10;1.00;;;;;;4962705;28;20949;-85
2023/02/14 12:05:29;;;;;;;7.60;6.70;;;35.00;1.00;;;;;;5046879;28;20443;-86
2023/02/14 12:08:01;;;;;;;7.13;6.30;;;34.60;1.00;;;;;;5063240;28;20943;-85
2023/02/14 12:10:30;;;;;;;8.67;7.77;;;35.20;1.00;;;;;;5065101;28;20471;-86
2023/02/14 12:13:01;;;;;;;9.20;7.60;;;35.30;1.00;;;;;;5075715;28;20485;-85
2023/02/14 12:15:43;;;;;;;6.80;5.90;;;34.60;1.00;;;;;;5083448;28;20450;-86
2023/02/14 12:18:42;;;;;;;9.33;6.63;;;34.30;1.00;;;;;;5076943;28;20491;-86
2023/02/14 12:21:36;;;;;;;7.40;6.70;;;34.60;1.00;;;;;;5081076;28;20506;-86
2023/02/14 12:24:11;;;;;;;8.90;7.13;;;34.40;99.90;;;;;;5070612;28;20456;-87
2023/02/14 12:26:45;;;;;;;9.10;7.80;;;33.10;99.90;;;;;;5075000;28;20450;-86
2023/02/14 12:29:19;;;;;;;7.40;6.70;;;32.80;99.90;;;;;;5059876;28;20456;-84
2023/02/14 12:31:48;;;;;;;8.00;7.20;;;34.00;99.90;;;;;;5075970;28;20490;-81
2023/02/14 12:34:18;;;;;;;7.47;6.77;;;33.30;99.90;;;;;;5070198;28;20907;-83
2023/02/14 12:37:05;;;;;;;8.00;7.20;;;33.70;99.90;;;;;;5074960;28;20509;-83
2023/02/14 12:39:41;;;;;;;8.40;7.50;;;33.80;99.90;;;;;;5063333;28;20537;-82
2023/02/14 12:42:23;;;;;;;8.07;6.33;;;33.70;99.90;;;;;;5079965;28;20441;-80
2023/02/14 12:44:58;;;;;;;7.43;6.63;;;34.10;99.90;;;;;;5070014;28;20455;-82
2023/02/14 12:47:39;;;;;;;7.97;7.17;;;33.30;99.90;;;;;;5074659;28;20474;-82
2023/02/14 12:50:27;;;;;;;6.93;6.23;;;33.20;99.90;;;;;;5063512;28;20546;-82
2023/02/14 12:53:04;;;;;;;6.90;6.20;;;33.10;99.90;;;;;;5069047;28;20869;-82
2023/02/14 12:55:45;;;;;;;6.87;5.97;;;32.90;99.90;;;;;;5075915;28;20457;-81
2023/02/14 12:58:23;;;;;;;6.77;5.90;;;33.10;99.90;;;;;;5066869;28;20844;-84
2023/02/14 13:01:03;;;;;;;7.43;6.60;;;32.70;99.90;;;;;;5067293;28;21011;-84
2023/02/14 13:04:09;;;;;;;7.10;5.80;;;32.40;99.90;;;;;;5068184;28;20459;-84
2023/02/14 13:06:40;;;;;;;9.60;7.30;;;31.60;99.90;;;;;;5063079;28;20463;-82
2023/02/14 13:09:21;;;;;;;9.23;7.30;;;30.20;99.90;;;;;;5074163;28;20454;-81
2023/02/14 13:11:59;;;;;;;9.20;7.40;;;27.80;99.90;;;;;;5062775;28;20495;-83
2023/02/14 13:14:41;;;;;;;6.57;5.73;;;28.50;99.90;;;;;;5077293;28;20526;-86
2023/02/14 13:17:18;;;;;;;7.60;6.63;;;29.80;99.90;;;;;;5078688;28;20482;-84
2023/02/14 13:19:52;;;;;;;6.80;6.10;;;30.70;99.90;;;;;;5071153;28;20908;-84
2023/02/14 13:22:23;;;;;;;7.87;6.33;;;32.10;99.90;;;;;;5076422;28;20446;-83
2023/02/14 13:24:54;;;;;;;7.40;6.53;;;32.40;99.90;;;;;;5070222;28;20451;-84
2023/02/14 13:27:23;;;;;;;9.17;7.27;;;32.60;99.90;;;;;;5078974;28;20486;-84
2023/02/14 13:29:52;;;;;;;7.50;6.30;;;33.40;99.90;;;;;;5075205;28;20549;-84
2023/02/14 13:32:24;;;;;;;8.37;7.57;;;33.90;99.90;;;;;;5064219;28;21030;-84
2023/02/14 13:34:51;;;;;;;7.20;6.30;;;33.20;99.90;;;;;;5067282;28;20455;-85
2023/02/14 13:37:22;;;;;;;8.00;7.20;;;34.10;99.90;;;;;;5075783;28;20892;-84
2023/02/14 13:39:52;;;;;;;8.10;6.50;;;34.70;99.90;;;;;;5076546;28;20966;-85
2023/02/14 13:42:51;;;;;;;7.20;6.50;;;35.10;99.90;;;;;;5070850;28;20448;-82
2023/02/14 13:45:50;;;;;;;6.30;5.70;;;35.20;99.90;;;;;;5063503;28;20465;-85